Bookmark and Share
Track history (hours):
 

Hildegaard

Last reported at 2014-Apr-19 16:33 UTC. Time now 2014-Apr-19 17:15 UTC.
Position N 54°44' W 001°09'.

Length 248 m; draft 8.6 m.

Type: Ship. MMSI: 308574000.

NotesDate/timePositionNaut miles runAvg speedWind from/ knotsBaromVisibWave heightAir tempDewpointWater temp
2014-Apr-19 16:33N 54°44' W 001°09'1 0.9
2014-Apr-19 15:33N 54°44' W 001°08'5 5.4
2014-Apr-19 14:33N 54°42' W 000°59'6 6.1
2014-Apr-19 13:33N 54°42' W 000°48'6 6.5
2014-Apr-19 12:34N 54°41' W 000°37'6 6.4
2014-Apr-19 11:33N 54°39' W 000°27'6 6.4
2014-Apr-19 10:33N 54°36' W 000°17'6 5.8
2014-Apr-19 09:33N 54°34' W 000°08'5 5.2
2014-Apr-19 08:33N 54°31' E 000°00'5 4.6
2014-Apr-19 07:33N 54°29' E 000°07'4 4.2
2014-Apr-19 06:33N 54°27' E 000°13'4 4.0
2014-Apr-19 05:33N 54°25' E 000°19'4 4.1
2014-Apr-19 04:33N 54°23' E 000°25'5 4.6
2014-Apr-19 03:33N 54°21' E 000°32'5 5.3
2014-Apr-19 02:33N 54°19' E 000°41'7 6.0
2014-Apr-19 01:28N 54°16' E 000°51'6 6.2
2014-Apr-19 00:32N 54°13' E 000°60'6 5.8
2014-Apr-18 23:33N 54°11' E 001°09'6 5.2
2014-Apr-18 22:20N 54°08' E 001°18'129 4.1
2014-Apr-17 15:22N 52°21' E 003°16'4 4.3
2014-Apr-17 14:30N 52°19' E 003°21'15 4.7
2014-Apr-17 11:14N 52°10' E 003°42'0 0.1
2014-Apr-17 10:32N 52°10' E 003°42'0 0.0
2014-Apr-17 09:32N 52°10' E 003°42'0 0.2
2014-Apr-17 08:29N 52°10' E 003°42'0 0.0
2014-Apr-17 07:30N 52°10' E 003°42'0 0.0
2014-Apr-17 06:32N 52°10' E 003°42'0 0.0
2014-Apr-17 05:26N 52°10' E 003°42'0 0.0
2014-Apr-17 04:32N 52°10' E 003°42'0 0.0
2014-Apr-17 03:27N 52°10' E 003°42'0 0.0
2014-Apr-17 02:32N 52°10' E 003°42'0 0.0
2014-Apr-17 01:20N 52°10' E 003°42'0 0.3
2014-Apr-17 00:32N 52°10' E 003°42'0 0.1
2014-Apr-16 23:32N 52°10' E 003°42'0 0.0
2014-Apr-16 22:32N 52°10' E 003°42'0 0.0
2014-Apr-16 21:32N 52°10' E 003°42'0 0.0
2014-Apr-16 20:32N 52°10' E 003°42'0 0.0
2014-Apr-16 19:32N 52°10' E 003°42'0 0.1
2014-Apr-16 18:29N 52°10' E 003°42'0 0.2
2014-Apr-16 17:33N 52°10' E 003°42'0 0.0
2014-Apr-16 12:32N 52°10' E 003°42'0 0.0
2014-Apr-16 10:29N 52°10' E 003°42'0 0.0
2014-Apr-16 08:14N 52°10' E 003°42'0 0.1
2014-Apr-16 07:17N 52°10' E 003°42'0 0.1
2014-Apr-16 06:11N 52°10' E 003°42'0 0.2
2014-Apr-16 05:32N 52°10' E 003°42'0 0.1
2014-Apr-16 04:29N 52°10' E 003°42'0 0.0
2014-Apr-16 03:33N 52°10' E 003°42'0 0.0
2014-Apr-16 02:30N 52°10' E 003°42'0 0.1
2014-Apr-16 01:17N 52°10' E 003°42'0 0.2
2014-Apr-16 00:21N 52°10' E 003°42'0 0.0
2014-Apr-15 22:14N 52°10' E 003°42'0 0.0
2014-Apr-15 21:32N 52°10' E 003°42'0 0.0
2014-Apr-15 20:14N 52°10' E 003°42'0 0.1
2014-Apr-15 16:18N 52°10' E 003°42'0 0.1
2014-Apr-15 15:21N 52°10' E 003°42'0 0.0
2014-Apr-15 14:26N 52°10' E 003°42'0 0.0
2014-Apr-13 21:26N 52°10' E 003°42'0 0.0
2014-Apr-13 10:26N 52°10' E 003°42'0 0.0
2014-Apr-13 03:18N 52°10' E 003°42'0 0.0
2014-Apr-13 02:32N 52°10' E 003°42'9 7.4
2014-Apr-13 01:19N 52°05' E 003°54'12 4.2
2014-Apr-12 22:30N 51°57' E 004°08'0 0.0
2014-Apr-12 21:30N 51°57' E 004°08'0 0.0
2014-Apr-12 18:15N 51°57' E 004°08'0 0.0
2014-Apr-12 15:33N 51°57' E 004°08'0 0.0
2014-Apr-12 14:03N 51°57' E 004°08'0 0.0
2014-Apr-12 13:33N 51°57' E 004°08'0 0.0
2014-Apr-12 12:27N 51°57' E 004°08'0 0.0
2014-Apr-12 11:21N 51°57' E 004°08'0 0.0
2014-Apr-12 10:27N 51°57' E 004°08'0 0.0
2014-Apr-12 09:33N 51°57' E 004°08'0 0.0
2014-Apr-12 08:21N 51°57' E 004°08'0 0.0
2014-Apr-12 07:33N 51°57' E 004°08'0 0.0
2014-Apr-12 06:12N 51°57' E 004°08'0 0.0
2014-Apr-12 05:33N 51°57' E 004°08'0 0.0
2014-Apr-12 04:27N 51°57' E 004°08'0 0.0
2014-Apr-12 03:33N 51°57' E 004°08'0 0.0
2014-Apr-12 02:27N 51°57' E 004°08'0 0.0
2014-Apr-12 01:21N 51°57' E 004°08'0 0.0
2014-Apr-12 00:33N 51°57' E 004°08'0 0.0
2014-Apr-11 23:33N 51°57' E 004°08'0 0.0
2014-Apr-11 22:30N 51°57' E 004°08'0 0.0
2014-Apr-11 21:33N 51°57' E 004°08'2 2.0
2014-Apr-11 20:33N 51°58' E 004°06'8 7.9
2014-Apr-11 19:33N 52°00' E 003°54'8 7.6
2014-Apr-11 18:33N 51°58' E 003°42'7 5.3
2014-Apr-11 17:17N 51°55' E 003°32'0 0.0
2014-Apr-11 16:08N 51°55' E 003°32'0 0.3
2014-Apr-11 15:29N 51°55' E 003°32'0 0.1
2014-Apr-11 14:32N 51°55' E 003°32'0 0.0
2014-Apr-11 13:29N 51°55' E 003°32'0 0.3
2014-Apr-11 12:17N 51°55' E 003°33'7 8.6
2014-Apr-11 11:31N 51°55' E 003°22'1111.9
2014-Apr-11 10:33N 51°52' E 003°04'18 8.3
2014-Apr-11 08:21N 52°02' E 002°40'29410.2
2014-Apr-10 03:33N 56°02' W 002°10'1111.2
2014-Apr-10 02:33N 56°06' W 002°28'1111.0
2014-Apr-10 01:33N 56°06' W 002°48'1111.1
2014-Apr-10 00:33N 56°03' W 003°07'7 7.1
2014-Apr-09 23:33N 56°01' W 003°19'2 1.4
2014-Apr-09 22:30N 56°00' W 003°22'  

Dump ship's entire track history

sailing weather and tide predictions

Hildegaard — C6QU3 — position and weather